^^
Grace C. Lehan Memorial Weather Station Historical Data
Daily Summary for September 25, 2021 Units:  English    Metric   Both
Daily Weekly Monthly Yearly
  High: Low: Average:
Temperature: 75.1 °F 52.3 °F 63.5 °F
Dew Point: 60.9 °F 50.9 °F 56.6 °F
Humidity: 96% 52% 80%
Wind Speed: 1.6mph 0mph 0.1mph
Wind Gust: 6mph - -
Wind- - SE
Pressure: 30.05 in 29.84 in -
Precipitation: 0.00 in    
 
 
Tabular Data for September 25, 2021
Time Temperature Dew Point Pressure Wind Wind Speed Wind Gust Humidity Rainfall Rate (Hourly) solar
00:00 58.7 °F 55.8 °F 30.01 in Calm     90% 0.00 in 0 W/m2
00:09 58.8 °F 55.8 °F 30.01 in Calm     90% 0.00 in 0 W/m2
00:14 58.7 °F 55.8 °F 30.02 in Calm     90% 0.00 in 0 W/m2
00:19 58.7 °F 55.8 °F 30.02 in Calm     90% 0.00 in 0 W/m2
00:24 58.7 °F 55.5 °F 30.03 in Calm     89.1% 0.00 in 0 W/m2
00:29 58.7 °F 55.5 °F 30.03 in Calm     89% 0.00 in 0 W/m2
00:34 58.6 °F 55.4 °F 30.03 in Calm     89% 0.00 in 0 W/m2
00:39 58.6 °F 55.4 °F 30.03 in Calm   1 mph 89.2% 0.00 in 0 W/m2
00:44 58.4 °F 55.5 °F 30.03 in Calm   1 mph 90% 0.00 in 0 W/m2
00:49 58.4 °F 55.4 °F 30.04 in Calm   1 mph 90% 0.00 in 0 W/m2
00:54 58.2 °F 55.3 °F 30.04 in Calm   1 mph 90% 0.00 in 0 W/m2
00:59 58.2 °F 55.6 °F 30.04 in Calm   1 mph 91% 0.00 in 0 W/m2
01:04 58.2 °F 55.6 °F 30.04 in Calm   1 mph 91% 0.00 in 0 W/m2
01:09 58.1 °F 55.5 °F 30.04 in Calm     91% 0.00 in 0 W/m2
01:14 58 °F 55.4 °F 30.03 in Calm     91% 0.00 in 0 W/m2
01:19 58 °F 55.4 °F 30.03 in Calm     91% 0.00 in 0 W/m2
01:24 57.9 °F 55.2 °F 30.03 in Calm     91% 0.00 in 0 W/m2
01:29 57.7 °F 55.1 °F 30.03 in Calm     91% 0.00 in 0 W/m2
01:34 57.6 °F 55.1 °F 30.03 in Calm     91.5% 0.00 in 0 W/m2
01:39 57.4 °F 55 °F 30.03 in Calm     91.8% 0.00 in 0 W/m2
01:44 57.2 °F 54.9 °F 30.03 in Calm   1 mph 91.8% 0.00 in 0 W/m2
01:49 57.1 °F 54.8 °F 30.03 in Calm   1 mph 92% 0.00 in 0 W/m2
01:54 57 °F 54.7 °F 30.03 in Calm   1 mph 92% 0.00 in 0 W/m2
01:59 56.9 °F 54.6 °F 30.03 in Calm   1 mph 92% 0.00 in 0 W/m2
02:04 56.8 °F 54.5 °F 30.03 in Calm   1 mph 92% 0.00 in 0 W/m2
02:09 56.7 °F 54.4 °F 30.03 in Calm     92% 0.00 in 0 W/m2
02:14 56.6 °F 54.6 °F 30.03 in Calm     93% 0.00 in 0 W/m2
02:19 56.4 °F 54.4 °F 30.03 in Calm     93% 0.00 in 0 W/m2
02:24 56.3 °F 54.1 °F 30.03 in Calm     92.4% 0.00 in 0 W/m2
02:29 56.2 °F 54.1 °F 30.03 in Calm     92.8% 0.00 in 0 W/m2
02:34 56 °F 54 °F 30.03 in Calm     93% 0.00 in 0 W/m2
02:39 55.9 °F 53.9 °F 30.03 in Calm     93% 0.00 in 0 W/m2
02:44 55.8 °F 53.8 °F 30.03 in Calm     93% 0.00 in 0 W/m2
02:49 55.8 °F 53.8 °F 30.03 in Calm     93% 0.00 in 0 W/m2
02:54 55.7 °F 53.7 °F 30.03 in Calm     93% 0.00 in 0 W/m2
02:59 55.6 °F 53.6 °F 30.03 in Calm     93% 0.00 in 0 W/m2
03:04 55.5 °F 53.5 °F 30.02 in Calm     93% 0.00 in 0 W/m2
03:09 55.3 °F 53.3 °F 30.02 in Calm     93% 0.00 in 0 W/m2
03:14 55.3 °F 53.4 °F 30.02 in Calm     93.2% 0.00 in 0 W/m2
03:19 55.2 °F 53.5 °F 30.03 in Calm     93.8% 0.00 in 0 W/m2
03:24 55.2 °F 53.5 °F 30.03 in Calm     94% 0.00 in 0 W/m2
03:29 55.1 °F 53.4 °F 30.02 in Calm     94% 0.00 in 0 W/m2
03:34 55 °F 53.3 °F 30.02 in Calm     94% 0.00 in 0 W/m2
03:39 54.9 °F 53.2 °F 30.02 in Calm     94% 0.00 in 0 W/m2
03:44 54.9 °F 53.2 °F 30.02 in Calm     94% 0.00 in 0 W/m2
03:49 54.8 °F 53.1 °F 30.02 in Calm     94% 0.00 in 0 W/m2
03:54 54.8 °F 53.1 °F 30.02 in Calm     94% 0.00 in 0 W/m2
03:59 54.7 °F 53 °F 30.03 in Calm     94% 0.00 in 0 W/m2
04:00 54.7 °F 53 °F 30.02 in Calm     94% 0.00 in 0 W/m2
04:09 54.5 °F 52.9 °F 30.03 in Calm     94% 0.00 in 0 W/m2
04:14 54.5 °F 52.8 °F 30.03 in Calm     94% 0.00 in 0 W/m2
04:19 54.4 °F 52.7 °F 30.03 in Calm     94% 0.00 in 0 W/m2
04:24 54.3 °F 52.6 °F 30.03 in Calm     94% 0.00 in 0 W/m2
04:29 54.3 °F 52.6 °F 30.03 in Calm     94% 0.00 in 0 W/m2
04:34 54.2 °F 52.5 °F 30.03 in Calm     94% 0.00 in 0 W/m2
04:39 54.2 °F 52.5 °F 30.03 in Calm     94% 0.00 in 0 W/m2
04:44 54.1 °F 52.4 °F 30.03 in Calm     94% 0.00 in 0 W/m2
04:49 54 °F 52.3 °F 30.03 in Calm     94% 0.00 in 0 W/m2
04:54 53.9 °F 52.2 °F 30.03 in Calm     94% 0.00 in 0 W/m2
04:59 53.8 °F 52.2 °F 30.03 in Calm     94% 0.00 in 0 W/m2
05:04 53.7 °F 52.1 °F 30.03 in Calm     94% 0.00 in 0 W/m2
05:09 53.6 °F 52 °F 30.03 in Calm     94.2% 0.00 in 0 W/m2
05:14 53.6 °F 51.9 °F 30.03 in Calm     94% 0.00 in 0 W/m2
05:19 53.5 °F 51.8 °F 30.03 in Calm     94% 0.00 in 0 W/m2
05:24 53.5 °F 51.8 °F 30.03 in Calm     94% 0.00 in 0 W/m2
05:29 53.4 °F 52 °F 30.03 in Calm     95% 0.00 in 0 W/m2
05:34 53.3 °F 51.9 °F 30.03 in Calm     95% 0.00 in 0 W/m2
05:39 53.2 °F 51.8 °F 30.03 in Calm     95% 0.00 in 0 W/m2
05:44 53.2 °F 51.8 °F 30.03 in Calm     95% 0.00 in 0 W/m2
05:49 53.1 °F 51.7 °F 30.03 in Calm     94.9% 0.00 in 0 W/m2
05:54 52.9 °F 51.2 °F 30.03 in Calm     94% 0.00 in 0 W/m2
05:59 52.8 °F 51.1 °F 30.03 in Calm     94% 0.00 in 0 W/m2
06:04 52.7 °F 51.3 °F 30.03 in Calm     95% 0.00 in 0 W/m2
06:09 52.6 °F 51.2 °F 30.03 in Calm     95% 0.00 in 0 W/m2
06:14 52.5 °F 51.2 °F 30.04 in Calm     95% 0.00 in 0 W/m2
06:19 52.5 °F 51.1 °F 30.04 in Calm     95% 0.00 in 0 W/m2
06:24 52.4 °F 51 °F 30.04 in Calm     95% 0.00 in 0 W/m2
06:29 52.4 °F 51 °F 30.04 in Calm     95% 0.00 in 0 W/m2
06:34 52.4 °F 51 °F 30.04 in Calm     95% 0.00 in 0 W/m2
06:39 52.3 °F 51 °F 30.03 in Calm     95% 0.00 in 0 W/m2
06:44 52.3 °F 50.9 °F 30.03 in Calm     95% 0.00 in 0 W/m2
06:49 52.3 °F 50.9 °F 30.03 in Calm     95% 0.00 in 0 W/m2
06:54 52.3 °F 50.9 °F 30.03 in West 0.1 mph 2 mph 95% 0.00 in 5 W/m2
06:59 52.3 °F 50.9 °F 30.03 in Calm   2 mph 95% 0.00 in 7 W/m2
07:04 52.3 °F 50.9 °F 30.04 in Calm   2 mph 95% 0.00 in 9 W/m2
07:09 52.3 °F 50.9 °F 30.04 in Calm     95% 0.00 in 9 W/m2
07:14 52.3 °F 50.9 °F 30.04 in Calm     95% 0.00 in 11 W/m2
07:19 52.5 °F 51.1 °F 30.04 in Calm     95% 0.00 in 11 W/m2
07:24 52.6 °F 51.3 °F 30.04 in Calm     95.1% 0.00 in 12 W/m2
07:29 52.8 °F 51.6 °F 30.04 in Calm     96% 0.00 in 14 W/m2
07:34 52.8 °F 51.7 °F 30.04 in Calm     96% 0.00 in 18 W/m2
07:39 53 °F 51.9 °F 30.04 in Calm     96% 0.00 in 18 W/m2
07:44 53.1 °F 52 °F 30.05 in Calm     96% 0.00 in 21 W/m2
07:49 53.2 °F 52.1 °F 30.05 in Calm     96% 0.00 in 16 W/m2
07:54 53.5 °F 52.4 °F 30.04 in Calm     96% 0.00 in 16 W/m2
07:59 53.7 °F 52.6 °F 30.04 in Calm     96% 0.00 in 18 W/m2
08:09 54.1 °F 53 °F 30.04 in Calm     96% 0.00 in 37 W/m2
08:14 54.4 °F 53.3 °F 30.04 in West 0.2 mph 2 mph 96% 0.00 in 21 W/m2
08:19 54.6 °F 53.5 °F 30.04 in Calm   2 mph 96% 0.00 in 23 W/m2
08:24 54.9 °F 53.8 °F 30.04 in Calm   2 mph 96% 0.00 in 25 W/m2
08:29 55.1 °F 54 °F 30.04 in West 0.1 mph 2 mph 96% 0.00 in 28 W/m2
08:34 55.3 °F 54.2 °F 30.04 in West 0.1 mph 2 mph 96% 0.00 in 37 W/m2
08:39 55.6 °F 54.5 °F 30.04 in Calm   2 mph 96% 0.00 in 39 W/m2
08:44 55.9 °F 54.6 °F 30.04 in Calm   2 mph 95.4% 0.00 in 47 W/m2
08:49 56.2 °F 54.8 °F 30.04 in Calm   2 mph 95% 0.00 in 51 W/m2
08:54 56.7 °F 55.1 °F 30.04 in NNE 0.6 mph 5 mph 94.5% 0.00 in 56 W/m2
08:59 57.1 °F 55.4 °F 30.04 in ENE 0.2 mph 5 mph 94% 0.00 in 350 W/m2
09:04 57.6 °F 55.6 °F 30.03 in Calm   5 mph 93% 0.00 in 394 W/m2
09:09 58.4 °F 56.4 °F 30.03 in NE 0.1 mph 2 mph 93% 0.00 in 413 W/m2
09:14 59.4 °F 57 °F 30.03 in NE 1.1 mph 4 mph 92% 0.00 in 438 W/m2
09:19 60.5 °F 57.2 °F 30.03 in Calm   4 mph 88.9% 0.00 in 459 W/m2
09:24 61.6 °F 57.8 °F 30.03 in NE 0.1 mph 4 mph 87.5% 0.00 in 480 W/m2
09:29 62.8 °F 58.7 °F 30.03 in Calm   4 mph 86.5% 0.00 in 504 W/m2
09:34 63.9 °F 58.8 °F 30.03 in ENE 1.5 mph 5 mph 83.5% 0.00 in 524 W/m2
09:39 64.6 °F 58.3 °F 30.03 in Calm   5 mph 80.1% 0.00 in 540 W/m2
09:44 65.2 °F 59.2 °F 30.03 in ENE 0.1 mph 5 mph 80.7% 0.00 in 555 W/m2
09:49 66.1 °F 59.3 °F 30.03 in ENE 0.3 mph 5 mph 78.6% 0.00 in 570 W/m2
09:54 67 °F 59.2 °F 30.03 in ENE 0.1 mph 5 mph 76.1% 0.00 in 578 W/m2
09:59 67.6 °F 59.9 °F 30.02 in ENE 0.5 mph 5 mph 76.2% 0.00 in 592 W/m2
10:04 68.2 °F 60 °F 30.02 in Calm   5 mph 75.1% 0.00 in 605 W/m2
10:09 68.7 °F 59.4 °F 30.02 in Calm     72.3% 0.00 in 613 W/m2
10:14 68.7 °F 58.6 °F 30.02 in NE 0.4 mph 3 mph 70% 0.00 in 626 W/m2
10:19 68.8 °F 58.7 °F 30.02 in NE 0.7 mph 4 mph 70.3% 0.00 in 635 W/m2
10:24 69 °F 59.3 °F 30.02 in NE 0.1 mph 4 mph 71.3% 0.00 in 647 W/m2
10:29 69.5 °F 59.9 °F 30.02 in North 0.6 mph 5 mph 71.4% 0.00 in 656 W/m2
10:34 70.1 °F 60.2 °F 30.02 in NNW 0.2 mph 5 mph 70.8% 0.00 in 666 W/m2
10:39 70.7 °F 60.2 °F 30.02 in NNE 0.3 mph 3 mph 69.3% 0.00 in 679 W/m2
10:44 71 °F 59.8 °F 30.02 in Calm   3 mph 67.7% 0.00 in 687 W/m2
10:49 71.1 °F 59.7 °F 30.02 in East 0.3 mph 3 mph 67.3% 0.00 in 698 W/m2
10:54 71.1 °F 59.5 °F 30.02 in North 0.7 mph 4 mph 66.8% 0.00 in 707 W/m2
10:59 71.4 °F 59.9 °F 30.02 in NNW 0.3 mph 4 mph 67.2% 0.00 in 717 W/m2
11:04 71.8 °F 60 °F 30.01 in NNW 0.1 mph 4 mph 66.5% 0.00 in 724 W/m2
11:09 72.1 °F 59.4 °F 30.01 in East 0.8 mph 5 mph 64.5% 0.00 in 731 W/m2
11:14 72.1 °F 58.5 °F 30.01 in Calm   5 mph 62.3% 0.00 in 740 W/m2
11:19 72.2 °F 59.1 °F 30.01 in ENE 1.1 mph 6 mph 63.3% 0.00 in 747 W/m2
11:24 72.4 °F 59.2 °F 30.01 in Calm   6 mph 63.3% 0.00 in 754 W/m2
11:29 72.6 °F 60.1 °F 30.01 in Calm   6 mph 64.8% 0.00 in 756 W/m2
11:34 73 °F 60.9 °F 30.00 in North 0.6 mph 6 mph 66% 0.00 in 654 W/m2
11:39 73.4 °F 60.4 °F 30.00 in North 0.3 mph 3 mph 63.9% 0.00 in 555 W/m2
11:44 73.6 °F 60.5 °F 30.00 in North 0.1 mph 3 mph 63.6% 0.00 in 281 W/m2
11:49 73.4 °F 59.5 °F 30.00 in North 1.1 mph 6 mph 61.7% 0.00 in 158 W/m2
11:54 72.9 °F 58.8 °F 30.00 in NW 0.8 mph 6 mph 61.3% 0.00 in 142 W/m2
11:59 72.7 °F 59.2 °F 29.99 in NE 0.3 mph 6 mph 62.6% 0.00 in 151 W/m2
12:00 72.7 °F 59.8 °F 29.99 in Calm   6 mph 64% 0.00 in 83 W/m2
12:09 72.2 °F 59.3 °F 29.99 in NE 0.8 mph 4 mph 63.9% 0.00 in 44 W/m2
12:14 72.2 °F 58.8 °F 29.99 in NE 0.2 mph 4 mph 62.9% 0.00 in 104 W/m2
12:19 72.1 °F 58.4 °F 29.99 in NE 0.4 mph 4 mph 62.2% 0.00 in 90 W/m2
12:24 72 °F 58.1 °F 29.98 in NE 0.4 mph 4 mph 61.7% 0.00 in 464 W/m2
12:29 72 °F 58.2 °F 29.98 in ENE 0.4 mph 4 mph 61.7% 0.00 in 366 W/m2
12:34 72.1 °F 57.7 °F 29.98 in East 0.5 mph 5 mph 60.4% 0.00 in 239 W/m2
12:39 72.2 °F 57.1 °F 29.98 in Calm   3 mph 59% 0.00 in 105 W/m2
12:44 72.3 °F 58.1 °F 29.97 in ENE 0.8 mph 4 mph 60.9% 0.00 in 232 W/m2
12:49 72.4 °F 58.2 °F 29.97 in ENE 0.7 mph 4 mph 61% 0.00 in 232 W/m2
12:54 72.2 °F 57.1 °F 29.97 in ENE 1 mph 4 mph 58.8% 0.00 in 42 W/m2
12:59 72.2 °F 57.2 °F 29.97 in ENE 1.4 mph 5 mph 59.2% 0.00 in 113 W/m2
13:04 72.2 °F 57.7 °F 29.97 in ENE 0.1 mph 5 mph 60.2% 0.00 in 297 W/m2
13:09 72.4 °F 57.2 °F 29.97 in Calm   2 mph 58.9% 0.00 in 297 W/m2
13:14 72.4 °F 57.1 °F 29.97 in ENE 0.1 mph 2 mph 58.6% 0.00 in 197 W/m2
13:19 72.5 °F 57.9 °F 29.96 in ENE 0.9 mph 5 mph 60% 0.00 in 158 W/m2
13:24 72.6 °F 57.7 °F 29.96 in ENE 0.5 mph 5 mph 59.4% 0.00 in 146 W/m2
13:29 72.7 °F 58.1 °F 29.96 in NW 0.9 mph 5 mph 60.2% 0.00 in 114 W/m2
13:34 72.9 °F 58.1 °F 29.95 in Calm   5 mph 59.9% 0.00 in 54 W/m2
13:39 73 °F 58.2 °F 29.95 in NE 0.7 mph 4 mph 59.9% 0.00 in 72 W/m2
13:44 73 °F 58 °F 29.95 in NE 1.1 mph 4 mph 59.3% 0.00 in 88 W/m2
13:49 73.1 °F 58.5 °F 29.94 in North 1.6 mph 5 mph 60.3% 0.00 in 35 W/m2
13:54 73.2 °F 58.1 °F 29.94 in NW 0.3 mph 5 mph 59.2% 0.00 in 39 W/m2
13:59 73.1 °F 57.1 °F 29.94 in North 0.6 mph 5 mph 57.3% 0.00 in 100 W/m2
14:04 73 °F 57 °F 29.94 in ENE 0.4 mph 5 mph 57.1% 0.00 in 37 W/m2
14:09 73 °F 57.5 °F 29.94 in NNW 1.5 mph 5 mph 58.3% 0.00 in 39 W/m2
14:14 73 °F 57.4 °F 29.94 in NW 0.7 mph 5 mph 58.2% 0.00 in 33 W/m2
14:19 73.1 °F 57.9 °F 29.94 in NW 0.1 mph 5 mph 59% 0.00 in 33 W/m2
14:24 73.3 °F 58 °F 29.93 in NW 0.4 mph 5 mph 58.7% 0.00 in 33 W/m2
14:29 73.3 °F 56.3 °F 29.93 in NNW 0.3 mph 5 mph 55.3% 0.00 in 37 W/m2
14:34 73.4 °F 56.7 °F 29.93 in North 0.2 mph 5 mph 55.8% 0.00 in 74 W/m2
14:39 73.5 °F 56.3 °F 29.93 in North 1.3 mph 3 mph 54.9% 0.00 in 158 W/m2
14:44 73.7 °F 56.8 °F 29.93 in Calm   3 mph 55.4% 0.00 in 206 W/m2
14:46 73.9 °F 56.8 °F 29.93 in Calm   3 mph 55% 0.00 in 209 W/m2
15:00 74.9 °F 56.6 °F 29.93 in Calm   3 mph 53% 0.00 in 114 W/m2
15:30 75.1 °F 56.3 °F 29.92 in Calm     52% 0.00 in 134 W/m2
16:04 74.7 °F 56.7 °F 29.90 in Calm     53.6% 0.00 in 32 W/m2
16:09 74.6 °F 57.5 °F 29.90 in Calm     55.2% 0.00 in 32 W/m2
16:14 74.6 °F 58.3 °F 29.90 in Calm     56.7% 0.00 in 32 W/m2
16:19 74.7 °F 58.1 °F 29.91 in NNE 0.2 mph 2 mph 56.3% 0.00 in 30 W/m2
16:24 74.7 °F 58.3 °F 29.90 in Calm   2 mph 56.6% 0.00 in 28 W/m2
16:29 74.8 °F 58.2 °F 29.90 in NNE 0.3 mph 2 mph 56.3% 0.00 in 28 W/m2
16:34 74.7 °F 57.9 °F 29.90 in NNE 0.3 mph 4 mph 55.8% 0.00 in 26 W/m2
16:39 74.7 °F 58.3 °F 29.90 in NNE 0.5 mph 4 mph 56.6% 0.00 in 28 W/m2
16:44 74.7 °F 58.1 °F 29.90 in Calm   4 mph 56.3% 0.00 in 28 W/m2
16:49 74.6 °F 58.4 °F 29.90 in NNE 0.1 mph 4 mph 56.9% 0.00 in 26 W/m2
16:54 74.6 °F 59.1 °F 29.90 in Calm   4 mph 58.5% 0.00 in 26 W/m2
16:59 74.6 °F 59.5 °F 29.90 in NNE 0.6 mph 4 mph 59.4% 0.00 in 26 W/m2
17:04 74.5 °F 59.5 °F 29.90 in NNE 0.2 mph 4 mph 59.5% 0.00 in 25 W/m2
17:09 74.4 °F 59 °F 29.90 in Calm   2 mph 58.7% 0.00 in 25 W/m2
17:14 74.2 °F 58.6 °F 29.90 in NNE 0.1 mph 2 mph 58.2% 0.00 in 23 W/m2
17:19 74.1 °F 58.9 °F 29.90 in Calm   2 mph 59% 0.00 in 21 W/m2
17:24 74 °F 58.6 °F 29.90 in Calm   2 mph 58.6% 0.00 in 21 W/m2
17:29 73.8 °F 58.6 °F 29.89 in Calm   2 mph 59% 0.00 in 26 W/m2
17:34 73.7 °F 58.5 °F 29.89 in Calm   2 mph 59% 0.00 in 28 W/m2
17:39 73.6 °F 58.6 °F 29.89 in NNE 0.2 mph 2 mph 59.5% 0.00 in 28 W/m2
17:44 73.5 °F 59 °F 29.89 in Calm   2 mph 60.6% 0.00 in 26 W/m2
17:49 73.4 °F 59 °F 29.89 in NNE 0.2 mph 2 mph 60.8% 0.00 in 25 W/m2
17:54 73.3 °F 59.3 °F 29.89 in Calm   2 mph 61.7% 0.00 in 21 W/m2
17:59 73.1 °F 59 °F 29.89 in Calm   2 mph 61.2% 0.00 in 21 W/m2
18:04 73 °F 59.5 °F 29.88 in Calm   2 mph 62.7% 0.00 in 14 W/m2
18:09 72.8 °F 59.6 °F 29.88 in Calm     63.3% 0.00 in 12 W/m2
18:14 72.6 °F 59.7 °F 29.88 in Calm     64% 0.00 in 11 W/m2
18:19 72.3 °F 59.5 °F 29.88 in Calm     64% 0.00 in 9 W/m2
18:24 72.1 °F 59.4 °F 29.88 in Calm     64.3% 0.00 in 7 W/m2
18:29 71.8 °F 59.7 °F 29.88 in Calm     65.7% 0.00 in 5 W/m2
18:34 71.4 °F 59.5 °F 29.88 in Calm     66% 0.00 in 0 W/m2
18:39 71.1 °F 59.4 °F 29.88 in Calm     66.5% 0.00 in 0 W/m2
18:44 70.8 °F 59.3 °F 29.87 in Calm     67% 0.00 in 0 W/m2
18:49 70.5 °F 59.3 °F 29.87 in Calm     67.8% 0.00 in 0 W/m2
18:54 70.1 °F 59.7 °F 29.87 in Calm     69.4% 0.00 in 0 W/m2
18:59 69.8 °F 59.9 °F 29.88 in Calm     70.9% 0.00 in 0 W/m2
19:04 69.4 °F 60 °F 29.88 in Calm     72.2% 0.00 in 0 W/m2
19:09 69 °F 60 °F 29.88 in Calm     73% 0.00 in 0 W/m2
19:14 68.6 °F 59.6 °F 29.88 in Calm     73% 0.00 in 0 W/m2
19:19 68.2 °F 59.4 °F 29.88 in NNE 0.1 mph 2 mph 73.5% 0.00 in 0 W/m2
19:24 67.9 °F 59.3 °F 29.88 in Calm   2 mph 74.1% 0.00 in 0 W/m2
19:29 67.6 °F 59.4 °F 29.88 in Calm   2 mph 75% 0.00 in 0 W/m2
19:34 67.3 °F 59.3 °F 29.87 in Calm   2 mph 75.7% 0.00 in 0 W/m2
19:39 66.9 °F 59.5 °F 29.87 in Calm     77% 0.00 in 0 W/m2
19:44 66.6 °F 59.5 °F 29.87 in Calm     77.9% 0.00 in 0 W/m2
19:49 66.3 °F 59.3 °F 29.87 in Calm     78% 0.00 in 0 W/m2
19:54 66.1 °F 59.2 °F 29.87 in Calm     78.5% 0.00 in 0 W/m2
19:59 65.8 °F 59.2 °F 29.87 in Calm     79.3% 0.00 in 0 W/m2
20:09 65.4 °F 59.3 °F 29.87 in Calm     80.8% 0.00 in 0 W/m2
20:14 65.1 °F 59.1 °F 29.87 in Calm     81% 0.00 in 0 W/m2
20:19 64.9 °F 59.2 °F 29.87 in Calm     81.7% 0.00 in 0 W/m2
20:24 64.8 °F 59.2 °F 29.87 in Calm     82% 0.00 in 0 W/m2
20:29 64.6 °F 59.2 °F 29.87 in Calm     82.5% 0.00 in 0 W/m2
20:34 64.4 °F 59.1 °F 29.87 in Calm     83% 0.00 in 0 W/m2
20:39 64.2 °F 59.1 °F 29.87 in Calm     83.3% 0.00 in 0 W/m2
20:44 64 °F 59.1 °F 29.87 in Calm     84% 0.00 in 0 W/m2
20:49 63.9 °F 58.9 °F 29.87 in Calm     84% 0.00 in 0 W/m2
20:54 63.7 °F 59.1 °F 29.87 in Calm     85% 0.00 in 0 W/m2
20:59 63.5 °F 58.9 °F 29.87 in Calm     85% 0.00 in 0 W/m2
21:04 63.4 °F 58.9 °F 29.87 in Calm     85.3% 0.00 in 0 W/m2
21:09 63.2 °F 59 °F 29.87 in Calm     86% 0.00 in 0 W/m2
21:14 63.2 °F 58.9 °F 29.87 in Calm     86% 0.00 in 0 W/m2
21:19 63.1 °F 58.9 °F 29.87 in Calm     86.2% 0.00 in 0 W/m2
21:24 63 °F 59.1 °F 29.87 in Calm     87% 0.00 in 0 W/m2
21:29 62.9 °F 59 °F 29.87 in Calm     87% 0.00 in 0 W/m2
21:34 62.9 °F 59.2 °F 29.86 in Calm     87.8% 0.00 in 0 W/m2
21:39 62.9 °F 59.3 °F 29.86 in Calm     88% 0.00 in 0 W/m2
21:44 62.9 °F 59.3 °F 29.86 in Calm     88% 0.00 in 0 W/m2
21:49 62.8 °F 59.2 °F 29.86 in Calm     88% 0.00 in 0 W/m2
21:54 62.8 °F 59.4 °F 29.87 in Calm     88.6% 0.00 in 0 W/m2
21:59 62.7 °F 59.4 °F 29.87 in Calm     89% 0.00 in 0 W/m2
22:04 62.7 °F 59.4 °F 29.86 in Calm     89% 0.00 in 0 W/m2
22:09 62.7 °F 59.4 °F 29.86 in Calm     89% 0.00 in 0 W/m2
22:14 62.7 °F 59.4 °F 29.86 in Calm     89% 0.00 in 0 W/m2
22:19 62.6 °F 59.3 °F 29.86 in Calm     89% 0.00 in 0 W/m2
22:24 62.6 °F 59.5 °F 29.86 in Calm     89.7% 0.00 in 0 W/m2
22:29 62.6 °F 59.6 °F 29.86 in Calm     90% 0.00 in 0 W/m2
22:34 62.6 °F 59.6 °F 29.86 in Calm     90% 0.00 in 0 W/m2
22:39 62.6 °F 59.6 °F 29.85 in Calm     90% 0.00 in 0 W/m2
22:44 62.6 °F 59.6 °F 29.85 in Calm     90% 0.00 in 0 W/m2
22:49 62.5 °F 59.4 °F 29.85 in Calm     89.7% 0.00 in 0 W/m2
22:54 62.5 °F 59.2 °F 29.85 in Calm     89% 0.00 in 0 W/m2
22:59 62.5 °F 59.2 °F 29.85 in Calm     89% 0.00 in 0 W/m2
23:04 62.5 °F 59.2 °F 29.85 in Calm     89% 0.00 in 0 W/m2
23:09 62.4 °F 59.1 °F 29.84 in Calm     89% 0.00 in 0 W/m2
23:14 62.3 °F 59 °F 29.85 in Calm     89% 0.00 in 0 W/m2
23:19 62.3 °F 59 °F 29.84 in Calm     89% 0.00 in 0 W/m2
23:24 62.2 °F 58.9 °F 29.85 in Calm     89% 0.00 in 0 W/m2
23:28 62.1 °F 58.8 °F 29.85 in Calm     89% 0.00 in 0 W/m2
Hartford County Weather
Compliments of Weather Underground - 4 mb